Metar z pełnej godziny Komunikat METAR ze strony awiacja.imgw.pl Metar G00 EPPO METAR EPPO 171200Z 25010KT CAVOK 25/14 Q1019 =